Time;durP1;ratioP1;P1;durP2;ratioP2;P2;SDS_P1;SDS_P2;PMS_P1;PMS_P2;Temp;Humidity;BMP_temperature;BMP_pressure;BME280_temperature;BME280_humidity;BME280_pressure;Samples;Min_cycle;Max_cycle;Signal;HPM_P1;HPM_P2
2021/12/06 00:01:57;;;;;;;;;5.00;5.00;;;;;;;;5040291;28;45259;-67
2021/12/06 00:04:24;;;;;;;;;2.33;1.67;;;;;;;;5038128;28;45311;-68
2021/12/06 00:06:53;;;;;;;;;5.00;5.00;;;;;;;;5042706;28;46307;-67
2021/12/06 00:09:20;;;;;;;;;4.33;3.67;;;;;;;;5036310;28;45254;-67
2021/12/06 00:11:46;;;;;;;;;5.00;3.00;;;;;;;;5040768;28;45317;-67
2021/12/06 00:14:11;;;;;;;;;5.00;3.00;;;;;;;;5037653;28;45437;-67
2021/12/06 00:16:37;;;;;;;;;5.33;3.67;;;;;;;;5042481;28;45460;-67
2021/12/06 00:19:02;;;;;;;;;4.33;4.33;;;;;;;;5036404;28;45379;-67
2021/12/06 00:21:28;;;;;;;;;9.33;5.00;;;;;;;;5041355;28;45542;-68
2021/12/06 00:23:53;;;;;;;;;6.67;5.00;;;;;;;;5036710;28;45223;-67
2021/12/06 00:26:19;;;;;;;;;5.00;2.33;;;;;;;;5042603;28;46180;-67
2021/12/06 00:28:46;;;;;;;;;6.00;4.33;;;;;;;;5036610;28;45319;-67
2021/12/06 00:31:12;;;;;;;;;4.00;2.33;;;;;;;;5042661;28;45290;-68
2021/12/06 00:33:37;;;;;;;;;5.67;1.00;;;;;;;;5036485;28;45437;-67
2021/12/06 00:36:06;;;;;;;;;5.00;2.67;;;;;;;;5040713;28;45305;-67
2021/12/06 00:38:32;;;;;;;;;3.33;3.33;;;;;;;;5038156;28;45315;-67
2021/12/06 00:40:58;;;;;;;;;3.00;2.33;;;;;;;;5035933;28;45288;-67
2021/12/06 00:43:23;;;;;;;;;6.00;3.00;;;;;;;;5039822;28;45372;-69
2021/12/06 00:45:48;;;;;;;;;3.00;3.00;;;;;;;;5036367;28;45584;-68
2021/12/06 00:48:13;;;;;;;;;7.00;7.00;;;;;;;;5041241;28;45551;-67
2021/12/06 00:50:40;;;;;;;;;6.00;5.00;;;;;;;;5044292;28;45433;-67
2021/12/06 00:53:05;;;;;;;;;7.67;6.00;;;;;;;;5044460;28;45549;-67
2021/12/06 00:55:31;;;;;;;;;5.00;3.00;;;;;;;;5043488;28;45324;-67
2021/12/06 00:57:57;;;;;;;;;9.33;7.00;;;;;;;;5044101;28;45434;-67
2021/12/06 01:00:33;;;;;;;;;5.00;5.00;;;;;;;;5036527;28;45809;-67
2021/12/06 01:02:59;;;;;;;;;4.33;2.67;;;;;;;;5043053;28;45322;-67
2021/12/06 01:05:25;;;;;;;;;11.00;6.00;;;;;;;;5040114;28;46420;-68
2021/12/06 01:07:51;;;;;;;;;4.00;2.33;;;;;;;;5043615;28;45318;-69
2021/12/06 01:10:16;;;;;;;;;7.67;3.67;;;;;;;;5044202;28;45263;-67
2021/12/06 01:12:42;;;;;;;;;5.33;5.33;;;;;;;;5046290;28;45573;-67
2021/12/06 01:15:07;;;;;;;;;5.33;5.33;;;;;;;;5036444;28;45832;-68
2021/12/06 01:17:33;;;;;;;;;3.67;3.67;;;;;;;;5044356;28;45271;-68
2021/12/06 01:19:58;;;;;;;;;9.33;6.67;;;;;;;;5038762;28;45183;-68
2021/12/06 01:22:32;;;;;;;;;7.67;7.00;;;;;;;;5046072;28;45536;-67
2021/12/06 01:25:03;;;;;;;;;2.67;2.67;;;;;;;;5036403;28;47410;-67
2021/12/06 01:30:52;;;;;;;;;4.00;3.67;;;;;;;;5036443;28;45392;-67
2021/12/06 01:41:15;;;;;;;;;4.00;3.00;;;;;;;;5045158;28;45554;-67
2021/12/06 01:43:58;;;;;;;;;6.33;3.67;;;;;;;;5040100;28;45593;-67
2021/12/06 01:46:24;;;;;;;;;5.33;5.00;;;;;;;;5032389;28;47204;-67
2021/12/06 01:48:49;;;;;;;;;5.67;5.33;;;;;;;;5040445;28;45684;-67
2021/12/06 01:51:14;;;;;;;;;5.33;5.33;;;;;;;;5042405;28;45345;-68
2021/12/06 01:53:39;;;;;;;;;12.00;5.33;;;;;;;;5041075;28;45533;-68
2021/12/06 01:56:04;;;;;;;;;6.00;6.00;;;;;;;;5042363;28;46906;-68
2021/12/06 01:58:30;;;;;;;;;7.67;6.00;;;;;;;;5040599;28;45743;-70
2021/12/06 02:00:55;;;;;;;;;5.67;3.00;;;;;;;;5036112;28;45547;-68
2021/12/06 02:03:20;;;;;;;;;6.67;6.67;;;;;;;;5043204;28;45526;-68
2021/12/06 02:05:48;;;;;;;;;7.00;6.00;;;;;;;;5041772;28;46609;-68
2021/12/06 02:08:13;;;;;;;;;13.00;7.67;;;;;;;;5041224;28;45453;-68
2021/12/06 02:10:40;;;;;;;;;6.33;5.67;;;;;;;;5043279;28;45188;-68
2021/12/06 02:13:07;;;;;;;;;6.33;6.33;;;;;;;;5043710;28;45348;-68
2021/12/06 02:15:40;;;;;;;;;8.00;7.00;;;;;;;;5038128;28;45369;-68
2021/12/06 02:18:13;;;;;;;;;8.33;8.00;;;;;;;;5040864;28;45473;-68
2021/12/06 02:20:50;;;;;;;;;7.33;7.00;;;;;;;;5039819;28;45227;-68
2021/12/06 02:23:16;;;;;;;;;6.00;6.00;;;;;;;;5042766;28;45333;-68
2021/12/06 02:25:42;;;;;;;;;11.00;6.00;;;;;;;;5039545;28;46209;-68
2021/12/06 02:28:07;;;;;;;;;12.00;7.00;;;;;;;;5042136;28;45313;-68
2021/12/06 02:30:33;;;;;;;;;6.00;6.00;;;;;;;;5039213;28;45385;-68
2021/12/06 02:32:59;;;;;;;;;7.00;6.33;;;;;;;;5041822;28;45548;-68
2021/12/06 02:35:24;;;;;;;;;8.00;6.00;;;;;;;;5039194;28;45491;-68
2021/12/06 02:37:50;;;;;;;;;6.67;5.00;;;;;;;;5041912;28;45439;-68
2021/12/06 02:40:17;;;;;;;;;7.67;6.00;;;;;;;;5036522;28;45491;-68
2021/12/06 02:42:45;;;;;;;;;6.67;4.67;;;;;;;;5044457;28;45214;-68
2021/12/06 02:45:12;;;;;;;;;8.00;7.00;;;;;;;;5037118;28;45330;-68
2021/12/06 02:47:37;;;;;;;;;11.00;7.00;;;;;;;;5044348;28;45305;-68
2021/12/06 02:50:07;;;;;;;;;7.00;3.67;;;;;;;;5039269;28;45299;-68
2021/12/06 02:52:33;;;;;;;;;4.67;4.67;;;;;;;;5043439;28;45239;-68
2021/12/06 02:55:00;;;;;;;;;8.67;7.00;;;;;;;;5040696;28;46569;-68
2021/12/06 02:57:37;;;;;;;;;7.67;6.00;;;;;;;;5030999;28;45334;-68
2021/12/06 03:00:08;;;;;;;;;12.67;8.00;;;;;;;;5032964;28;45355;-68
2021/12/06 03:02:33;;;;;;;;;5.00;5.00;;;;;;;;5044486;28;45402;-68
2021/12/06 03:04:58;;;;;;;;;13.00;9.00;;;;;;;;5038696;28;45988;-68
2021/12/06 03:07:25;;;;;;;;;7.00;5.33;;;;;;;;5043941;28;45342;-68
2021/12/06 03:09:53;;;;;;;;;6.67;6.33;;;;;;;;5037805;28;45266;-68
2021/12/06 03:12:20;;;;;;;;;11.67;6.67;;;;;;;;5042359;28;45477;-68
2021/12/06 03:14:47;;;;;;;;;6.00;5.00;;;;;;;;5035140;28;46327;-68
2021/12/06 03:17:14;;;;;;;;;8.00;7.33;;;;;;;;5043530;28;45379;-68
2021/12/06 03:19:39;;;;;;;;;9.00;7.33;;;;;;;;5031429;28;45445;-68
2021/12/06 03:22:05;;;;;;;;;9.00;7.00;;;;;;;;5044100;28;45461;-68
2021/12/06 03:24:31;;;;;;;;;6.67;6.33;;;;;;;;5036805;28;45673;-68
2021/12/06 03:26:56;;;;;;;;;12.67;7.00;;;;;;;;5043380;28;45287;-68
2021/12/06 03:29:21;;;;;;;;;7.00;6.00;;;;;;;;5037146;28;45675;-68
2021/12/06 03:31:47;;;;;;;;;8.33;7.00;;;;;;;;5043959;28;45538;-68
2021/12/06 03:34:13;;;;;;;;;7.67;7.00;;;;;;;;5039013;28;45655;-68
2021/12/06 03:36:39;;;;;;;;;13.33;9.33;;;;;;;;5043322;28;45377;-68
2021/12/06 03:39:06;;;;;;;;;6.67;6.00;;;;;;;;5037414;28;45413;-68
2021/12/06 03:41:31;;;;;;;;;6.33;6.33;;;;;;;;5039961;28;45421;-68
2021/12/06 03:43:57;;;;;;;;;9.33;9.33;;;;;;;;5038765;28;45357;-68
2021/12/06 03:46:23;;;;;;;;;10.67;8.00;;;;;;;;5040460;28;45302;-69
2021/12/06 03:48:49;;;;;;;;;16.00;7.00;;;;;;;;5039480;28;45421;-68
2021/12/06 03:51:14;;;;;;;;;8.67;7.00;;;;;;;;5041790;28;45393;-68
2021/12/06 03:53:40;;;;;;;;;11.00;7.33;;;;;;;;5040464;28;46672;-68
2021/12/06 03:56:05;;;;;;;;;7.67;7.67;;;;;;;;5040865;28;45355;-68
2021/12/06 03:58:31;;;;;;;;;7.00;7.00;;;;;;;;5041063;28;45574;-68
2021/12/06 04:00:56;;;;;;;;;11.00;10.00;;;;;;;;5035186;28;45737;-68
2021/12/06 04:03:23;;;;;;;;;8.00;8.00;;;;;;;;5040741;28;46592;-68
2021/12/06 04:05:49;;;;;;;;;13.67;12.00;;;;;;;;5039592;28;45759;-68
2021/12/06 04:08:14;;;;;;;;;10.00;10.00;;;;;;;;5041795;28;45461;-68
2021/12/06 04:10:39;;;;;;;;;12.67;10.33;;;;;;;;5042002;28;45520;-68
2021/12/06 04:13:04;;;;;;;;;10.00;6.33;;;;;;;;5039409;28;47067;-68
2021/12/06 04:15:30;;;;;;;;;8.00;8.00;;;;;;;;5038352;28;45224;-68
2021/12/06 04:17:59;;;;;;;;;9.67;9.67;;;;;;;;5040350;28;45639;-68
2021/12/06 04:20:24;;;;;;;;;10.33;8.67;;;;;;;;5036724;28;45655;-68
2021/12/06 04:22:50;;;;;;;;;11.33;9.33;;;;;;;;5040792;28;46282;-68
2021/12/06 04:25:17;;;;;;;;;13.00;10.33;;;;;;;;5041057;28;45767;-68
2021/12/06 04:27:43;;;;;;;;;17.33;11.67;;;;;;;;5045248;28;45454;-68
2021/12/06 04:30:10;;;;;;;;;9.67;7.33;;;;;;;;5040001;28;45519;-68
2021/12/06 04:32:35;;;;;;;;;12.67;11.33;;;;;;;;5046091;28;46280;-68
2021/12/06 04:35:00;;;;;;;;;16.67;10.67;;;;;;;;5034868;28;46077;-69
2021/12/06 04:37:25;;;;;;;;;11.33;7.67;;;;;;;;5041440;28;45504;-68
2021/12/06 04:39:51;;;;;;;;;9.00;7.67;;;;;;;;5042876;28;45435;-68
2021/12/06 04:42:18;;;;;;;;;20.00;11.00;;;;;;;;5042779;28;45398;-68
2021/12/06 04:44:43;;;;;;;;;11.00;9.67;;;;;;;;5037455;28;45445;-68
2021/12/06 04:47:09;;;;;;;;;13.00;8.67;;;;;;;;5042282;28;45291;-68
2021/12/06 04:49:34;;;;;;;;;17.00;11.33;;;;;;;;5043471;28;45345;-69
2021/12/06 04:52:01;;;;;;;;;12.00;8.00;;;;;;;;5044845;28;45498;-68
2021/12/06 04:54:28;;;;;;;;;9.67;9.67;;;;;;;;5043551;28;45314;-68
2021/12/06 04:56:59;;;;;;;;;10.00;10.00;;;;;;;;5044925;28;45414;-68
2021/12/06 04:59:33;;;;;;;;;14.33;11.00;;;;;;;;5037765;28;45513;-68
2021/12/06 05:01:59;;;;;;;;;15.67;13.67;;;;;;;;5041618;28;47963;-69
2021/12/06 05:04:27;;;;;;;;;21.33;18.33;;;;;;;;5040995;28;45336;-68
2021/12/06 05:06:56;;;;;;;;;12.33;11.00;;;;;;;;5044236;28;45433;-68
2021/12/06 05:09:23;;;;;;;;;10.33;10.33;;;;;;;;5040375;28;45504;-68
2021/12/06 05:11:48;;;;;;;;;15.00;12.67;;;;;;;;5045358;28;46582;-68
2021/12/06 05:14:14;;;;;;;;;10.00;10.00;;;;;;;;5038811;28;45256;-68
2021/12/06 05:16:39;;;;;;;;;12.00;11.33;;;;;;;;5045034;28;45331;-68
2021/12/06 05:19:05;;;;;;;;;14.33;12.67;;;;;;;;5038931;28;45236;-68
2021/12/06 05:21:30;;;;;;;;;14.00;12.33;;;;;;;;5045148;28;46461;-68
2021/12/06 05:23:55;;;;;;;;;13.67;13.67;;;;;;;;5037312;28;45690;-68
2021/12/06 05:26:20;;;;;;;;;18.33;12.67;;;;;;;;5045168;28;45223;-68
2021/12/06 05:28:47;;;;;;;;;16.00;14.67;;;;;;;;5039975;28;45415;-68
2021/12/06 05:31:20;;;;;;;;;17.33;14.33;;;;;;;;5043536;28;46599;-69
2021/12/06 05:33:47;;;;;;;;;19.33;19.33;;;;;;;;5038783;28;45236;-68
2021/12/06 05:36:13;;;;;;;;;16.67;12.00;;;;;;;;5044110;28;45320;-68
2021/12/06 05:38:39;;;;;;;;;17.33;15.67;;;;;;;;5038398;28;45322;-68
2021/12/06 05:41:05;;;;;;;;;12.67;11.00;;;;;;;;5038148;28;48057;-68
2021/12/06 05:43:30;;;;;;;;;16.00;13.00;;;;;;;;5037691;28;45370;-70
2021/12/06 05:45:56;;;;;;;;;14.67;13.00;;;;;;;;5040911;28;45454;-68
2021/12/06 05:48:21;;;;;;;;;14.33;11.33;;;;;;;;5042861;28;45322;-68
2021/12/06 05:50:47;;;;;;;;;14.00;13.00;;;;;;;;5041003;28;45394;-68
2021/12/06 05:53:14;;;;;;;;;10.33;10.33;;;;;;;;5042394;28;45314;-68
2021/12/06 05:55:39;;;;;;;;;15.33;14.33;;;;;;;;5042546;28;45557;-68
2021/12/06 05:58:05;;;;;;;;;11.00;9.00;;;;;;;;5042088;28;45467;-68
2021/12/06 06:00:32;;;;;;;;;10.00;8.00;;;;;;;;5034688;28;46452;-68
2021/12/06 06:02:58;;;;;;;;;15.67;12.00;;;;;;;;5042417;28;45364;-68
2021/12/06 06:05:23;;;;;;;;;15.00;15.00;;;;;;;;5039499;28;45417;-68
2021/12/06 06:07:48;;;;;;;;;11.00;11.00;;;;;;;;5044203;28;45399;-68
2021/12/06 06:10:15;;;;;;;;;17.00;16.00;;;;;;;;5038647;28;46375;-68
2021/12/06 06:12:40;;;;;;;;;17.00;16.00;;;;;;;;5042149;28;45462;-68
2021/12/06 06:15:06;;;;;;;;;14.33;11.00;;;;;;;;5029878;28;45464;-68
2021/12/06 06:17:39;;;;;;;;;23.67;15.00;;;;;;;;5044772;28;45381;-68
2021/12/06 06:20:04;;;;;;;;;20.67;14.33;;;;;;;;5036348;28;45560;-67
2021/12/06 06:22:30;;;;;;;;;12.67;11.67;;;;;;;;5043971;28;45389;-68
2021/12/06 06:24:55;;;;;;;;;16.00;12.33;;;;;;;;5035985;28;45425;-67
2021/12/06 06:27:20;;;;;;;;;15.00;11.67;;;;;;;;5050791;28;45395;-67
2021/12/06 06:29:45;;;;;;;;;12.67;11.67;;;;;;;;5038220;28;45412;-67
2021/12/06 06:32:10;;;;;;;;;14.00;13.33;;;;;;;;5043019;28;45396;-68
2021/12/06 06:34:36;;;;;;;;;14.00;14.00;;;;;;;;5031470;28;45364;-68
2021/12/06 06:37:02;;;;;;;;;12.00;12.00;;;;;;;;5036641;28;45555;-67
2021/12/06 06:39:27;;;;;;;;;15.67;12.33;;;;;;;;5037478;28;46524;-68
2021/12/06 06:41:53;;;;;;;;;13.33;13.33;;;;;;;;5042137;28;45152;-67
2021/12/06 06:44:20;;;;;;;;;18.00;13.67;;;;;;;;5038503;28;45396;-67
2021/12/06 06:46:46;;;;;;;;;15.33;13.33;;;;;;;;5039982;28;45684;-68
2021/12/06 06:49:11;;;;;;;;;15.67;13.00;;;;;;;;5038453;28;45429;-68
2021/12/06 06:51:37;;;;;;;;;11.67;11.67;;;;;;;;5041550;28;45710;-69
2021/12/06 06:54:03;;;;;;;;;17.00;14.67;;;;;;;;5036722;28;45789;-68
2021/12/06 06:56:28;;;;;;;;;14.00;12.00;;;;;;;;5041580;28;45394;-68
2021/12/06 06:58:54;;;;;;;;;15.33;15.33;;;;;;;;5034939;28;47031;-69
2021/12/06 07:01:19;;;;;;;;;18.00;14.67;;;;;;;;5029857;28;45808;-67
2021/12/06 07:03:45;;;;;;;;;19.00;16.00;;;;;;;;5038736;28;45402;-68
2021/12/06 07:06:10;;;;;;;;;22.67;18.67;;;;;;;;5040468;28;45498;-68
2021/12/06 07:08:35;;;;;;;;;14.00;14.00;;;;;;;;5041560;28;45424;-68
2021/12/06 07:11:01;;;;;;;;;16.00;13.67;;;;;;;;5040622;28;45752;-68
2021/12/06 07:13:28;;;;;;;;;19.00;19.00;;;;;;;;5039973;28;45418;-68
2021/12/06 07:15:53;;;;;;;;;28.67;16.00;;;;;;;;5038899;28;45494;-69
2021/12/06 07:18:19;;;;;;;;;20.67;11.00;;;;;;;;5039765;28;45504;-69
2021/12/06 07:20:44;;;;;;;;;18.33;17.33;;;;;;;;5037018;28;45290;-68
2021/12/06 07:23:09;;;;;;;;;14.33;11.33;;;;;;;;5039019;28;45460;-70
2021/12/06 07:25:34;;;;;;;;;20.33;15.00;;;;;;;;5040589;28;45666;-68
2021/12/06 07:28:00;;;;;;;;;14.00;11.00;;;;;;;;5039689;28;45428;-68
2021/12/06 07:30:26;;;;;;;;;16.00;15.33;;;;;;;;5036541;28;45397;-68
2021/12/06 07:32:52;;;;;;;;;13.67;11.67;;;;;;;;5041119;28;45211;-69
2021/12/06 07:35:18;;;;;;;;;17.00;13.67;;;;;;;;5035358;28;45394;-68
2021/12/06 07:37:43;;;;;;;;;19.33;18.00;;;;;;;;5040798;28;45660;-68
2021/12/06 07:40:09;;;;;;;;;16.33;16.00;;;;;;;;5035465;28;45483;-68
2021/12/06 07:42:35;;;;;;;;;36.00;34.50;;;;;;;;5041575;28;45396;-70
2021/12/06 07:45:01;;;;;;;;;15.00;15.00;;;;;;;;5036628;28;45431;-68
2021/12/06 07:47:27;;;;;;;;;19.00;17.00;;;;;;;;5038816;28;48336;-68
2021/12/06 07:49:52;;;;;;;;;11.67;11.67;;;;;;;;5037883;28;45385;-68
2021/12/06 07:52:17;;;;;;;;;20.33;17.33;;;;;;;;5039533;28;45593;-69
2021/12/06 07:54:43;;;;;;;;;17.33;12.33;;;;;;;;5035491;28;45504;-67
2021/12/06 07:57:08;;;;;;;;;19.67;14.33;;;;;;;;5037516;28;47182;-67
2021/12/06 07:59:34;;;;;;;;;13.67;10.67;;;;;;;;5039125;28;45347;-66
2021/12/06 08:02:00;;;;;;;;;11.00;11.00;;;;;;;;5041904;28;45480;-67
2021/12/06 08:04:25;;;;;;;;;16.67;15.00;;;;;;;;5033176;28;45557;-68
2021/12/06 08:06:51;;;;;;;;;15.33;14.33;;;;;;;;5040655;28;47215;-68
2021/12/06 08:09:17;;;;;;;;;19.67;16.67;;;;;;;;5036179;28;45264;-68
2021/12/06 08:11:42;;;;;;;;;16.00;16.00;;;;;;;;5038237;28;45485;-68
2021/12/06 08:14:08;;;;;;;;;18.00;16.67;;;;;;;;5036038;28;45358;-68
2021/12/06 08:16:37;;;;;;;;;19.67;19.67;;;;;;;;5042130;28;45410;-68
2021/12/06 08:19:02;;;;;;;;;23.00;18.67;;;;;;;;5035219;28;45453;-68
2021/12/06 08:21:28;;;;;;;;;29.33;26.67;;;;;;;;5042012;28;45330;-68
2021/12/06 08:23:54;;;;;;;;;25.00;22.00;;;;;;;;5035928;28;45290;-68
2021/12/06 08:26:21;;;;;;;;;18.33;15.33;;;;;;;;5037011;28;47842;-68
2021/12/06 08:28:47;;;;;;;;;16.33;16.33;;;;;;;;5037584;28;45207;-68
2021/12/06 08:31:13;;;;;;;;;22.33;16.00;;;;;;;;5039289;28;45391;-68
2021/12/06 08:33:39;;;;;;;;;21.33;21.00;;;;;;;;5036638;28;45264;-68
2021/12/06 08:36:05;;;;;;;;;20.00;16.00;;;;;;;;5038692;28;45409;-68
2021/12/06 08:38:31;;;;;;;;;18.67;17.67;;;;;;;;5037988;28;45325;-68
2021/12/06 08:40:58;;;;;;;;;25.67;22.00;;;;;;;;5034059;28;45366;-68
2021/12/06 08:43:24;;;;;;;;;17.33;15.33;;;;;;;;5039383;28;45552;-68
2021/12/06 08:45:51;;;;;;;;;15.67;15.33;;;;;;;;5036020;28;45405;-68
2021/12/06 08:48:17;;;;;;;;;21.67;18.67;;;;;;;;5039381;28;45352;-69
2021/12/06 08:50:42;;;;;;;;;22.67;20.33;;;;;;;;5037584;28;45728;-69
2021/12/06 08:53:07;;;;;;;;;20.67;18.33;;;;;;;;5039446;28;45499;-69
2021/12/06 08:55:32;;;;;;;;;17.67;17.67;;;;;;;;5039333;28;47238;-67
2021/12/06 08:57:58;;;;;;;;;28.67;23.00;;;;;;;;5040213;28;45297;-69
2021/12/06 09:00:26;;;;;;;;;26.67;19.67;;;;;;;;5039779;28;45358;-67
2021/12/06 09:02:52;;;;;;;;;19.67;17.67;;;;;;;;5038922;28;45505;-68
2021/12/06 09:05:17;;;;;;;;;26.67;20.33;;;;;;;;5034422;28;45331;-69
2021/12/06 09:07:42;;;;;;;;;22.33;19.33;;;;;;;;5041026;28;45312;-69
2021/12/06 09:10:10;;;;;;;;;21.00;20.67;;;;;;;;5034248;28;45200;-69
2021/12/06 09:12:35;;;;;;;;;21.00;18.67;;;;;;;;5043756;28;45464;-68
2021/12/06 09:15:04;;;;;;;;;24.33;18.67;;;;;;;;5037824;28;45474;-69
2021/12/06 09:17:29;;;;;;;;;19.00;18.67;;;;;;;;5044665;28;45404;-68
2021/12/06 09:19:54;;;;;;;;;20.67;20.67;;;;;;;;5037980;28;45424;-69
2021/12/06 09:22:20;;;;;;;;;23.00;20.00;;;;;;;;5045486;28;45449;-69
2021/12/06 09:24:46;;;;;;;;;31.25;24.00;;;;;;;;5037899;28;46662;-68
2021/12/06 09:27:11;;;;;;;;;26.67;23.33;;;;;;;;5044238;28;45442;-69
2021/12/06 09:29:37;;;;;;;;;25.00;22.33;;;;;;;;5038320;28;45263;-68
2021/12/06 09:32:07;;;;;;;;;30.00;24.67;;;;;;;;5044760;28;45423;-69
2021/12/06 09:34:33;;;;;;;;;22.67;22.00;;;;;;;;5037420;28;46480;-68
2021/12/06 09:36:59;;;;;;;;;25.67;24.00;;;;;;;;5039911;28;45248;-68
2021/12/06 09:39:24;;;;;;;;;17.33;13.00;;;;;;;;5039368;28;45410;-68
2021/12/06 09:41:50;;;;;;;;;27.33;22.67;;;;;;;;5032565;28;45485;-68
2021/12/06 09:44:15;;;;;;;;;20.00;16.67;;;;;;;;5039856;28;46509;-68
2021/12/06 09:46:42;;;;;;;;;20.67;20.67;;;;;;;;5042907;28;45890;-69
2021/12/06 09:49:09;;;;;;;;;24.00;17.33;;;;;;;;5041251;28;45453;-68
2021/12/06 09:51:36;;;;;;;;;22.00;16.33;;;;;;;;5043844;28;45410;-68
2021/12/06 09:54:02;;;;;;;;;7.00;7.00;;;;;;;;5041671;28;46127;-68
2021/12/06 09:56:32;;;;;;;;;21.00;15.33;;;;;;;;5042111;28;45378;-69
2021/12/06 09:58:58;;;;;;;;;14.67;12.33;;;;;;;;5042746;28;45318;-69
2021/12/06 10:01:28;;;;;;;;;12.67;11.33;;;;;;;;5042860;28;45275;-68
2021/12/06 10:03:55;;;;;;;;;19.00;10.67;;;;;;;;5037607;28;45428;-68
2021/12/06 10:06:21;;;;;;;;;14.00;11.33;;;;;;;;5037939;28;45716;-68
2021/12/06 10:08:49;;;;;;;;;12.67;12.67;;;;;;;;5043551;28;45564;-68
2021/12/06 10:11:15;;;;;;;;;16.33;15.33;;;;;;;;5044656;28;45541;-68
2021/12/06 10:13:41;;;;;;;;;12.67;10.33;;;;;;;;5039856;28;45373;-68
2021/12/06 10:16:07;;;;;;;;;18.33;15.00;;;;;;;;5033181;28;45342;-68
2021/12/06 10:18:32;;;;;;;;;12.67;12.67;;;;;;;;5040806;28;45401;-67
2021/12/06 10:20:58;;;;;;;;;17.33;15.67;;;;;;;;5040721;28;45460;-67
2021/12/06 10:23:23;;;;;;;;;13.67;13.00;;;;;;;;5042134;28;45349;-67
2021/12/06 10:25:50;;;;;;;;;18.67;14.00;;;;;;;;5041979;28;45352;-68
2021/12/06 10:28:17;;;;;;;;;16.67;13.67;;;;;;;;5041172;28;45357;-68
2021/12/06 10:30:44;;;;;;;;;14.67;14.33;;;;;;;;5039144;28;45378;-68
2021/12/06 10:33:14;;;;;;;;;16.67;13.33;;;;;;;;5040216;28;45431;-68
2021/12/06 10:35:44;;;;;;;;;14.33;12.00;;;;;;;;5034442;28;45397;-68
2021/12/06 10:38:10;;;;;;;;;12.67;11.33;;;;;;;;5041393;28;45502;-67
2021/12/06 10:40:37;;;;;;;;;17.33;15.67;;;;;;;;5036584;28;45316;-69
2021/12/06 10:43:05;;;;;;;;;13.67;13.67;;;;;;;;5040738;28;47517;-67
2021/12/06 10:45:32;;;;;;;;;12.33;12.00;;;;;;;;5039211;28;45346;-67
2021/12/06 10:48:03;;;;;;;;;14.67;12.67;;;;;;;;5042422;28;45289;-68
2021/12/06 10:50:29;;;;;;;;;14.67;12.00;;;;;;;;5041523;28;45422;-68
2021/12/06 10:52:55;;;;;;;;;19.00;14.33;;;;;;;;5043098;28;45411;-68
2021/12/06 10:55:22;;;;;;;;;19.67;14.67;;;;;;;;5041414;28;45280;-67
2021/12/06 10:57:48;;;;;;;;;15.67;13.67;;;;;;;;5043270;28;45353;-68
2021/12/06 11:00:37;;;;;;;;;18.33;15.67;;;;;;;;5034450;28;45335;-69
2021/12/06 11:03:03;;;;;;;;;18.00;14.33;;;;;;;;5044502;28;45580;-70
2021/12/06 11:05:30;;;;;;;;;14.00;11.00;;;;;;;;5036518;28;45363;-69
2021/12/06 11:07:57;;;;;;;;;16.33;15.00;;;;;;;;5042669;28;45333;-69
2021/12/06 11:10:23;;;;;;;;;14.00;11.67;;;;;;;;5037509;28;45307;-69
2021/12/06 11:12:48;;;;;;;;;16.00;16.00;;;;;;;;5043076;28;46235;-69
2021/12/06 11:15:14;;;;;;;;;24.00;18.00;;;;;;;;5036191;28;45451;-69
2021/12/06 11:17:39;;;;;;;;;12.00;12.00;;;;;;;;5042696;28;45398;-69
2021/12/06 11:20:18;;;;;;;;;20.00;15.00;;;;;;;;5036158;28;45446;-69
2021/12/06 11:22:44;;;;;;;;;16.00;14.67;;;;;;;;5041714;28;47258;-69
2021/12/06 11:25:09;;;;;;;;;14.33;13.67;;;;;;;;5035740;28;45464;-69
2021/12/06 11:27:39;;;;;;;;;14.00;14.00;;;;;;;;5043091;28;45592;-69
2021/12/06 11:30:06;;;;;;;;;14.00;14.00;;;;;;;;5036917;28;45300;-69
2021/12/06 11:32:32;;;;;;;;;17.33;15.67;;;;;;;;5041659;28;45473;-69
2021/12/06 11:35:06;;;;;;;;;14.33;12.00;;;;;;;;5039021;28;45775;-69
2021/12/06 11:37:31;;;;;;;;;6.00;3.67;;;;;;;;5056516;28;45356;-68
2021/12/06 11:40:02;;;;;;;;;7.33;7.33;;;;;;;;5041836;28;45478;-69
2021/12/06 11:42:27;;;;;;;;;14.33;14.33;;;;;;;;5040025;28;45460;-69
2021/12/06 11:44:52;;;;;;;;;17.67;17.33;;;;;;;;5039088;28;45344;-69
2021/12/06 11:47:19;;;;;;;;;16.33;14.67;;;;;;;;5041464;28;45414;-69
2021/12/06 11:49:50;;;;;;;;;15.00;15.00;;;;;;;;5040413;28;45406;-69
2021/12/06 11:52:20;;;;;;;;;12.67;12.33;;;;;;;;5041635;28;46506;-69
2021/12/06 11:54:47;;;;;;;;;15.33;11.67;;;;;;;;5032289;28;45962;-69
2021/12/06 11:57:17;;;;;;;;;16.33;13.67;;;;;;;;5040637;28;45445;-69
2021/12/06 12:00:09;;;;;;;;;14.00;12.67;;;;;;;;5034879;28;45287;-69
2021/12/06 12:02:46;;;;;;;;;13.67;11.67;;;;;;;;5032256;28;45395;-69
2021/12/06 12:05:13;;;;;;;;;17.00;13.00;;;;;;;;5036012;28;45433;-69
2021/12/06 12:07:54;;;;;;;;;10.00;10.00;;;;;;;;5042369;28;45394;-69
2021/12/06 12:10:34;;;;;;;;;12.00;11.00;;;;;;;;5036495;28;45402;-69
2021/12/06 12:13:00;;;;;;;;;14.00;10.00;;;;;;;;5041125;28;46174;-69
2021/12/06 12:15:25;;;;;;;;;18.00;13.33;;;;;;;;5036409;28;45364;-71
2021/12/06 12:17:51;;;;;;;;;14.67;10.67;;;;;;;;5040550;28;45351;-69
2021/12/06 12:20:17;;;;;;;;;15.00;13.33;;;;;;;;5035935;28;46223;-69
2021/12/06 12:22:49;;;;;;;;;13.00;11.67;;;;;;;;5041854;28;45532;-70
2021/12/06 12:25:22;;;;;;;;;14.00;11.00;;;;;;;;5034984;28;45322;-69
2021/12/06 12:30:33;;;;;;;;;8.67;8.67;;;;;;;;5037030;28;45405;-69
2021/12/06 12:32:59;;;;;;;;;13.33;10.00;;;;;;;;5033744;28;47145;-68
2021/12/06 12:35:24;;;;;;;;;16.67;12.67;;;;;;;;5050065;28;45386;-69
2021/12/06 12:37:51;;;;;;;;;16.00;12.33;;;;;;;;5044249;28;45599;-69
2021/12/06 12:40:18;;;;;;;;;14.67;11.33;;;;;;;;5035738;28;45579;-69
2021/12/06 12:42:57;;;;;;;;;13.67;10.67;;;;;;;;5041416;28;45447;-69
2021/12/06 12:45:22;;;;;;;;;8.00;8.00;;;;;;;;5038566;28;45204;-69
2021/12/06 12:47:53;;;;;;;;;8.00;4.67;;;;;;;;5044160;28;45370;-69
2021/12/06 12:50:19;;;;;;;;;4.67;4.33;;;;;;;;5042822;28;45462;-68
2021/12/06 12:52:45;;;;;;;;;9.33;8.67;;;;;;;;5045455;28;45806;-68
2021/12/06 12:55:19;;;;;;;;;8.00;8.00;;;;;;;;5033137;28;45393;-68
2021/12/06 12:57:44;;;;;;;;;4.67;4.67;;;;;;;;5045116;28;45315;-69
2021/12/06 13:00:17;;;;;;;;;11.33;9.00;;;;;;;;5036162;28;45699;-69
2021/12/06 13:02:42;;;;;;;;;12.67;7.00;;;;;;;;5045458;28;45619;-68
2021/12/06 13:05:13;;;;;;;;;10.00;8.00;;;;;;;;5037746;28;45446;-68
2021/12/06 13:07:38;;;;;;;;;7.67;7.00;;;;;;;;5045443;28;45233;-68
2021/12/06 13:10:22;;;;;;;;;8.00;4.67;;;;;;;;5041115;28;45521;-70
2021/12/06 13:12:55;;;;;;;;;7.67;6.33;;;;;;;;5044911;28;45592;-68
2021/12/06 13:15:21;;;;;;;;;9.67;7.00;;;;;;;;5035006;28;45390;-68
2021/12/06 13:17:49;;;;;;;;;6.33;6.33;;;;;;;;5046517;28;45437;-69
2021/12/06 13:20:19;;;;;;;;;5.00;4.00;;;;;;;;5038538;28;45330;-68
2021/12/06 13:22:47;;;;;;;;;10.00;9.00;;;;;;;;5043578;28;47439;-69
2021/12/06 13:25:13;;;;;;;;;8.33;6.67;;;;;;;;5038192;28;45357;-69
2021/12/06 13:27:40;;;;;;;;;8.00;7.00;;;;;;;;5044803;28;45327;-68
2021/12/06 13:30:26;;;;;;;;;9.67;6.33;;;;;;;;5036970;28;45513;-68
2021/12/06 13:32:53;;;;;;;;;8.00;5.67;;;;;;;;5061403;28;48023;-68
2021/12/06 13:35:22;;;;;;;;;4.00;4.00;;;;;;;;5034609;28;45375;-68
2021/12/06 13:37:59;;;;;;;;;7.33;6.33;;;;;;;;5042939;28;45442;-68
2021/12/06 13:40:25;;;;;;;;;10.33;9.33;;;;;;;;5036925;28;45400;-69
2021/12/06 13:42:50;;;;;;;;;1.00;0.00;;;;;;;;5044347;28;45293;-69
2021/12/06 13:45:19;;;;;;;;;7.00;4.67;;;;;;;;5038411;28;45411;-70
2021/12/06 13:48:06;;;;;;;;;9.33;6.00;;;;;;;;5043264;28;45412;-69
2021/12/06 13:50:31;;;;;;;;;7.33;6.00;;;;;;;;5041349;28;45436;-69
2021/12/06 13:52:56;;;;;;;;;8.00;6.00;;;;;;;;5044037;28;45402;-68
2021/12/06 13:55:24;;;;;;;;;11.33;8.00;;;;;;;;5033791;28;45472;-69
2021/12/06 13:57:51;;;;;;;;;2.00;0.33;;;;;;;;5042526;28;45375;-69
2021/12/06 14:00:23;;;;;;;;;9.67;7.00;;;;;;;;5035271;28;45216;-69
2021/12/06 14:02:49;;;;;;;;;6.33;5.00;;;;;;;;5044274;28;47456;-69
2021/12/06 14:05:15;;;;;;;;;7.00;6.00;;;;;;;;5038252;28;45364;-68
2021/12/06 14:07:43;;;;;;;;;7.33;5.67;;;;;;;;5043736;28;45598;-68
2021/12/06 14:10:12;;;;;;;;;6.67;4.00;;;;;;;;5034460;28;45442;-68
2021/12/06 14:12:40;;;;;;;;;7.33;5.00;;;;;;;;5042824;28;47661;-68
2021/12/06 14:15:14;;;;;;;;;2.67;2.67;;;;;;;;5037336;28;47538;-68
2021/12/06 14:17:40;;;;;;;;;4.00;1.00;;;;;;;;5044184;28;45393;-68
2021/12/06 14:20:06;;;;;;;;;7.00;5.00;;;;;;;;5037481;28;45331;-68
2021/12/06 14:22:32;;;;;;;;;3.00;3.00;;;;;;;;5044031;28;45317;-71
2021/12/06 14:25:00;;;;;;;;;5.67;5.67;;;;;;;;5036225;28;45599;-68
2021/12/06 14:27:27;;;;;;;;;3.67;2.67;;;;;;;;5042507;28;45338;-68
2021/12/06 14:29:53;;;;;;;;;4.67;3.33;;;;;;;;5034030;28;45557;-68
2021/12/06 14:32:18;;;;;;;;;2.67;2.00;;;;;;;;5043807;28;45251;-68
2021/12/06 14:34:44;;;;;;;;;3.00;3.00;;;;;;;;5037709;28;45445;-69
2021/12/06 14:37:12;;;;;;;;;4.00;4.00;;;;;;;;5043219;28;45262;-69
2021/12/06 14:39:38;;;;;;;;;3.67;3.67;;;;;;;;5036566;28;45370;-69
2021/12/06 14:42:08;;;;;;;;;2.00;2.00;;;;;;;;5035193;28;46143;-69